Elvins, Missouri
Current Conditions -  °F | °C
As of 7:35 AM on Friday 19 Dec 2014 (Local Time) from KFAM Reporting Station
Overcast Overcast  
Wind Chill: 27°   Ceiling: 1700
Heat Index: 32°   Visibility: 4mi
Dew Point: 30°   Wind: 5mph
Humidity: 93%   Direction: 360°N
Pressure: 30.29"   Gusts: NA
Location:  37.8386°N, 90.5648°W
Report Text: KFAM 191335Z AUTO 36004KT 4SM OVC017 00/M01 A3029 RMK AO1
Loading
Personal Weather Stations






























Interactive Weather Map New forecast layout! Learn more

10-Day Weather Forecast

Advertisements
Track Severe Weather on mobile